Time,TemperatureF,DewpointF,PressureIn,WindDirection,WindDirectionDegrees,WindSpeedMPH,WindSpeedGustMPH,Humidity,HourlyPrecipIn,Conditions,Clouds,dailyrainin,SoftwareType,DateUTC
2013-09-23 00:12:00,43.2,42.0,29.97,NNW,347,0.0,-999.0,94,-99.99,,,0.00,weatherlink.com 1.10,2013-09-23 04:12:00,
2013-09-23 00:27:00,42.9,42.0,29.96,NNW,339,6.0,-999.0,95,-99.99,,,0.00,weatherlink.com 1.10,2013-09-23 04:27:00,
2013-09-23 00:42:00,42.5,42.0,29.96,NNW,339,1.0,-999.0,96,-99.99,,,0.00,weatherlink.com 1.10,2013-09-23 04:42:00,
2013-09-23 00:57:00,42.4,41.0,29.96,NNW,339,0.0,-999.0,96,-99.99,,,0.00,weatherlink.com 1.10,2013-09-23 04:57:00,
2013-09-23 01:12:00,42.2,41.0,29.96,NNW,339,0.0,-999.0,96,-99.99,,,0.00,weatherlink.com 1.10,2013-09-23 05:12:00,
2013-09-23 01:27:00,42.0,41.0,29.97,NNW,339,0.0,-999.0,96,-99.99,,,0.00,weatherlink.com 1.10,2013-09-23 05:27:00,
2013-09-23 01:42:00,41.7,41.0,29.97,NNW,339,0.0,-999.0,96,-99.99,,,0.00,weatherlink.com 1.10,2013-09-23 05:42:00,
2013-09-23 01:57:00,41.4,40.0,29.98,NNW,339,0.0,-999.0,96,-99.99,,,0.00,weatherlink.com 1.10,2013-09-23 05:57:00,
2013-09-23 02:13:00,41.2,40.0,29.98,NNW,339,0.0,-999.0,97,-99.99,,,0.00,weatherlink.com 1.10,2013-09-23 06:13:00,
2013-09-23 02:28:00,40.9,40.0,29.98,NNW,339,0.0,-999.0,96,-99.99,,,0.00,weatherlink.com 1.10,2013-09-23 06:28:00,
2013-09-23 02:43:00,40.4,39.0,29.98,NNW,339,0.0,-999.0,96,-99.99,,,0.00,weatherlink.com 1.10,2013-09-23 06:43:00,
2013-09-23 02:58:00,40.4,40.0,29.97,NNW,339,0.0,-999.0,97,-99.99,,,0.00,weatherlink.com 1.10,2013-09-23 06:58:00,
2013-09-23 03:13:00,40.9,40.0,29.98,NNW,339,1.0,-999.0,96,-99.99,,,0.00,weatherlink.com 1.10,2013-09-23 07:13:00,
2013-09-23 03:28:00,40.9,40.0,29.98,NNW,339,0.0,-999.0,95,-99.99,,,0.00,weatherlink.com 1.10,2013-09-23 07:28:00,
2013-09-23 03:43:00,40.5,39.0,29.98,NNW,339,4.0,-999.0,95,-99.99,,,0.00,weatherlink.com 1.10,2013-09-23 07:43:00,
2013-09-23 03:58:00,40.1,39.0,29.98,NNW,339,0.0,-999.0,95,-99.99,,,0.00,weatherlink.com 1.10,2013-09-23 07:58:00,
2013-09-23 04:13:00,40.0,39.0,29.98,NNW,339,0.0,-999.0,94,-99.99,,,0.00,weatherlink.com 1.10,2013-09-23 08:13:00,
2013-09-23 04:28:00,40.1,39.0,29.98,NW,309,8.0,-999.0,95,-99.99,,,0.00,weatherlink.com 1.10,2013-09-23 08:28:00,
2013-09-23 04:43:00,40.8,40.0,29.98,WNW,303,8.0,-999.0,95,-99.99,,,0.00,weatherlink.com 1.10,2013-09-23 08:43:00,
2013-09-23 04:58:00,41.0,39.0,29.99,WNW,291,2.0,-999.0,94,-99.99,,,0.00,weatherlink.com 1.10,2013-09-23 08:58:00,
2013-09-23 05:13:00,40.6,39.0,29.99,WNW,294,8.0,-999.0,94,-99.99,,,0.00,weatherlink.com 1.10,2013-09-23 09:13:00,
2013-09-23 05:28:00,40.6,39.0,29.99,WNW,296,4.0,-999.0,94,-99.99,,,0.00,weatherlink.com 1.10,2013-09-23 09:28:00,
2013-09-23 05:42:00,40.5,39.0,30.00,WNW,296,1.0,-999.0,95,-99.99,,,0.00,weatherlink.com 1.10,2013-09-23 09:42:00,
2013-09-23 05:57:00,40.4,39.0,30.01,WNW,296,2.0,-999.0,95,-99.99,,,0.00,weatherlink.com 1.10,2013-09-23 09:57:00,
2013-09-23 06:12:00,40.1,39.0,30.01,WNW,296,5.0,-999.0,95,-99.99,,,0.00,weatherlink.com 1.10,2013-09-23 10:12:00,
2013-09-23 06:27:00,40.2,39.0,30.01,WNW,296,4.0,-999.0,95,-99.99,,,0.00,weatherlink.com 1.10,2013-09-23 10:27:00,
2013-09-23 06:42:00,40.3,39.0,30.02,WNW,287,7.0,-999.0,95,-99.99,,,0.00,weatherlink.com 1.10,2013-09-23 10:42:00,
2013-09-23 06:57:00,40.1,39.0,30.02,WNW,299,8.0,-999.0,95,-99.99,,,0.00,weatherlink.com 1.10,2013-09-23 10:57:00,
2013-09-23 07:12:00,40.0,39.0,30.02,WNW,300,7.0,-999.0,95,-99.99,,,0.00,weatherlink.com 1.10,2013-09-23 11:12:00,
2013-09-23 07:27:00,40.0,39.0,30.03,WNW,300,5.0,-999.0,95,-99.99,,,0.00,weatherlink.com 1.10,2013-09-23 11:27:00,
2013-09-23 07:42:00,40.3,39.0,30.03,WNW,300,0.0,-999.0,95,-99.99,,,0.00,weatherlink.com 1.10,2013-09-23 11:42:00,
2013-09-23 07:57:00,41.0,40.0,30.04,WNW,300,2.0,-999.0,95,-99.99,,,0.00,weatherlink.com 1.10,2013-09-23 11:57:00,
2013-09-23 08:12:00,41.4,40.0,30.04,WNW,300,0.0,-999.0,94,-99.99,,,0.00,weatherlink.com 1.10,2013-09-23 12:12:00,
2013-09-23 08:27:00,42.0,40.0,30.04,WNW,300,0.0,-999.0,94,-99.99,,,0.00,weatherlink.com 1.10,2013-09-23 12:27:00,
2013-09-23 08:42:00,43.1,41.0,30.05,WNW,300,0.0,-999.0,93,-99.99,,,0.00,weatherlink.com 1.10,2013-09-23 12:42:00,
2013-09-23 08:57:00,43.7,41.0,30.05,WNW,300,0.0,-999.0,91,-99.99,,,0.00,weatherlink.com 1.10,2013-09-23 12:57:00,
2013-09-23 09:12:00,45.0,42.0,30.05,WNW,300,0.0,-999.0,90,-99.99,,,0.00,weatherlink.com 1.10,2013-09-23 13:12:00,
2013-09-23 09:27:00,45.9,42.0,30.06,WNW,300,2.0,-999.0,86,-99.99,,,0.00,weatherlink.com 1.10,2013-09-23 13:27:00,
2013-09-23 09:42:00,46.0,42.0,30.06,WNW,300,1.0,-999.0,87,-99.99,,,0.00,weatherlink.com 1.10,2013-09-23 13:42:00,
2013-09-23 09:57:00,46.9,43.0,30.06,WNW,300,4.0,-999.0,85,-99.99,,,0.00,weatherlink.com 1.10,2013-09-23 13:57:00,
2013-09-23 10:12:00,47.6,42.0,30.07,WNW,300,0.0,-999.0,80,-99.99,,,0.00,weatherlink.com 1.10,2013-09-23 14:12:00,
2013-09-23 10:27:00,48.9,43.0,30.06,WNW,300,2.0,-999.0,80,-99.99,,,0.00,weatherlink.com 1.10,2013-09-23 14:27:00,
2013-09-23 10:42:00,48.8,44.0,30.07,West,261,4.0,-999.0,83,-99.99,,,0.00,weatherlink.com 1.10,2013-09-23 14:42:00,
2013-09-23 10:57:00,48.3,40.0,30.07,SW,225,6.0,-999.0,74,-99.99,,,0.00,weatherlink.com 1.10,2013-09-23 14:57:00,
2013-09-23 11:12:00,49.0,42.0,30.07,SW,219,2.0,-999.0,78,-99.99,,,0.00,weatherlink.com 1.10,2013-09-23 15:12:00,
2013-09-23 11:27:00,49.5,43.0,30.07,SW,217,4.0,-999.0,78,-99.99,,,0.00,weatherlink.com 1.10,2013-09-23 15:27:00,
2013-09-23 11:57:00,51.4,42.0,30.07,NNW,346,8.0,-999.0,71,-99.99,,,0.00,weatherlink.com 1.10,2013-09-23 15:57:00,
2013-09-23 12:12:00,52.2,45.0,30.08,NNW,347,0.0,-999.0,76,-99.99,,,0.00,weatherlink.com 1.10,2013-09-23 16:12:00,
2013-09-23 12:27:00,52.4,45.0,30.08,NNW,341,1.0,-999.0,77,-99.99,,,0.00,weatherlink.com 1.10,2013-09-23 16:27:00,
2013-09-23 12:42:00,51.6,45.0,30.07,NNW,342,6.0,-999.0,78,-99.99,,,0.00,weatherlink.com 1.10,2013-09-23 16:42:00,
2013-09-23 12:58:00,51.6,45.0,30.07,NW,304,8.0,-999.0,78,-99.99,,,0.00,weatherlink.com 1.10,2013-09-23 16:58:00,
2013-09-23 13:13:00,52.6,44.0,30.08,West,278,1.0,-999.0,72,-99.99,,,0.00,weatherlink.com 1.10,2013-09-23 17:13:00,
2013-09-23 13:28:00,53.3,46.0,30.07,NW,322,6.0,-999.0,76,-99.99,,,0.00,weatherlink.com 1.10,2013-09-23 17:28:00,
2013-09-23 13:43:00,52.9,44.0,30.07,NNW,347,9.0,-999.0,73,-99.99,,,0.00,weatherlink.com 1.10,2013-09-23 17:43:00,
2013-09-23 13:57:00,53.0,44.0,30.07,NNW,335,9.0,-999.0,72,-99.99,,,0.00,weatherlink.com 1.10,2013-09-23 17:57:00,
2013-09-23 14:13:00,53.2,45.0,30.07,NNW,348,6.0,-999.0,73,-99.99,,,0.00,weatherlink.com 1.10,2013-09-23 18:13:00,
2013-09-23 14:28:00,53.8,45.0,30.07,NW,308,8.0,-999.0,72,-99.99,,,0.00,weatherlink.com 1.10,2013-09-23 18:28:00,
2013-09-23 14:43:00,53.5,45.0,30.07,NW,311,8.0,-999.0,74,-99.99,,,0.00,weatherlink.com 1.10,2013-09-23 18:43:00,
2013-09-23 14:58:00,54.2,46.0,30.07,NW,319,12.0,-999.0,75,-99.99,,,0.00,weatherlink.com 1.10,2013-09-23 18:58:00,
2013-09-23 15:13:00,53.8,46.0,30.07,NW,326,5.0,-999.0,76,-99.99,,,0.00,weatherlink.com 1.10,2013-09-23 19:13:00,
2013-09-23 15:28:00,54.4,46.0,30.06,NW,323,5.0,-999.0,73,-99.99,,,0.00,weatherlink.com 1.10,2013-09-23 19:28:00,
2013-09-23 15:43:00,54.8,47.0,30.06,WNW,291,6.0,-999.0,74,-99.99,,,0.00,weatherlink.com 1.10,2013-09-23 19:43:00,
2013-09-23 15:58:00,54.9,47.0,30.06,WNW,288,2.0,-999.0,74,-99.99,,,0.00,weatherlink.com 1.10,2013-09-23 19:58:00,
2013-09-23 16:13:00,54.8,46.0,30.06,NNW,337,8.0,-999.0,72,-99.99,,,0.00,weatherlink.com 1.10,2013-09-23 20:13:00,
2013-09-23 16:28:00,55.1,46.0,30.06,NW,325,6.0,-999.0,72,-99.99,,,0.00,weatherlink.com 1.10,2013-09-23 20:28:00,
2013-09-23 16:43:00,55.0,46.0,30.06,NW,319,5.0,-999.0,71,-99.99,,,0.00,weatherlink.com 1.10,2013-09-23 20:43:00,
2013-09-23 16:58:00,55.2,46.0,30.07,NW,310,8.0,-999.0,71,-99.99,,,0.00,weatherlink.com 1.10,2013-09-23 20:58:00,
2013-09-23 17:13:00,55.2,46.0,30.06,WNW,294,1.0,-999.0,71,-99.99,,,0.00,weatherlink.com 1.10,2013-09-23 21:13:00,
2013-09-23 17:28:00,55.1,46.0,30.06,NW,312,5.0,-999.0,72,-99.99,,,0.00,weatherlink.com 1.10,2013-09-23 21:28:00,
2013-09-23 17:43:00,54.8,47.0,30.07,NW,314,6.0,-999.0,74,-99.99,,,0.00,weatherlink.com 1.10,2013-09-23 21:43:00,
2013-09-23 17:57:00,54.2,47.0,30.07,NW,313,0.0,-999.0,76,-99.99,,,0.00,weatherlink.com 1.10,2013-09-23 21:57:00,
2013-09-23 18:13:00,54.0,47.0,30.07,NW,313,0.0,-999.0,76,-99.99,,,0.00,weatherlink.com 1.10,2013-09-23 22:13:00,
2013-09-23 18:42:00,52.9,46.0,30.07,NW,313,5.0,-999.0,78,-99.99,,,0.00,weatherlink.com 1.10,2013-09-23 22:42:00,
2013-09-23 18:57:00,51.2,46.0,30.07,NW,313,0.0,-999.0,82,-99.99,,,0.00,weatherlink.com 1.10,2013-09-23 22:57:00,
2013-09-23 19:12:00,50.3,47.0,30.07,NW,312,4.0,-999.0,87,-99.99,,,0.00,weatherlink.com 1.10,2013-09-23 23:12:00,
2013-09-23 19:27:00,49.8,46.0,30.07,NW,312,0.0,-999.0,87,-99.99,,,0.00,weatherlink.com 1.10,2013-09-23 23:27:00,
2013-09-23 19:42:00,49.4,45.0,30.07,NW,312,0.0,-999.0,86,-99.99,,,0.00,weatherlink.com 1.10,2013-09-23 23:42:00,
2013-09-23 19:57:00,49.5,45.0,30.07,NW,312,0.0,-999.0,84,-99.99,,,0.00,weatherlink.com 1.10,2013-09-23 23:57:00,
2013-09-23 20:27:00,49.3,45.0,30.07,NW,312,0.0,-999.0,84,-99.99,,,0.00,weatherlink.com 1.10,2013-09-24 00:27:00,
2013-09-23 20:42:00,49.3,45.0,30.08,NW,312,4.0,-999.0,84,-99.99,,,0.00,weatherlink.com 1.10,2013-09-24 00:42:00,
2013-09-23 20:57:00,48.6,45.0,30.07,NW,312,4.0,-999.0,86,-99.99,,,0.00,weatherlink.com 1.10,2013-09-24 00:57:00,
2013-09-23 21:12:00,49.2,44.0,30.07,NW,311,0.0,-999.0,82,-99.99,,,0.00,weatherlink.com 1.10,2013-09-24 01:12:00,
2013-09-23 21:28:00,49.6,43.0,30.07,WNW,288,7.0,-999.0,77,-99.99,,,0.00,weatherlink.com 1.10,2013-09-24 01:28:00,
2013-09-23 21:43:00,50.2,43.0,30.07,SW,229,7.0,-999.0,76,-99.99,,,0.00,weatherlink.com 1.10,2013-09-24 01:43:00,
2013-09-23 21:57:00,50.9,44.0,30.07,SSW,200,4.0,-999.0,78,-99.99,,,0.00,weatherlink.com 1.10,2013-09-24 01:57:00,
2013-09-23 22:13:00,51.1,45.0,30.08,SSW,195,9.0,-999.0,80,-99.99,,,0.00,weatherlink.com 1.10,2013-09-24 02:13:00,
2013-09-23 22:28:00,51.2,45.0,30.08,South,190,10.0,-999.0,80,-99.99,,,0.00,weatherlink.com 1.10,2013-09-24 02:28:00,
2013-09-23 22:43:00,50.7,45.0,30.09,South,188,3.0,-999.0,80,-99.99,,,0.00,weatherlink.com 1.10,2013-09-24 02:43:00,
2013-09-23 22:58:00,49.5,44.0,30.08,South,171,5.0,-999.0,82,-99.99,,,0.00,weatherlink.com 1.10,2013-09-24 02:58:00,
2013-09-23 23:13:00,49.0,45.0,30.09,SSE,157,4.0,-999.0,87,-99.99,,,0.00,weatherlink.com 1.10,2013-09-24 03:13:00,